Time;durP1;ratioP1;P1;durP2;ratioP2;P2;SDS_P1;SDS_P2;PMS_P1;PMS_P2;Temp;Humidity;BMP_temperature;BMP_pressure;BME280_temperature;BME280_humidity;BME280_pressure;Samples;Min_cycle;Max_cycle;Signal;HPM_P1;HPM_P2
2021/12/25 00:01:11;;;;;;;3.37;1.83;;;;;;;;;;6186566;28;20320;-65
2021/12/25 00:04:32;;;;;;;5.97;1.90;;;;;;;;;;6171925;28;20235;-66
2021/12/25 00:07:53;;;;;;;2.53;1.73;;;;;;;;;;6187559;28;20259;-68
2021/12/25 00:11:15;;;;;;;3.03;1.90;;;;;;;;;;6193458;28;20234;-66
2021/12/25 00:14:36;;;;;;;4.77;2.60;;;;;;;;;;6193444;28;20797;-68
2021/12/25 00:17:57;;;;;;;4.10;3.03;;;;;;;;;;6178177;28;20305;-66
2021/12/25 00:21:18;;;;;;;2.73;2.50;;;;;;;;;;6185039;28;20276;-68
2021/12/25 00:24:43;;;;;;;2.70;2.17;;;;;;;;;;6175578;28;20597;-68
2021/12/25 00:28:20;;;;;;;3.33;2.37;;;;;;;;;;6185138;28;20238;-66
2021/12/25 00:31:50;;;;;;;3.43;2.13;;;;;;;;;;6188908;28;20237;-67
2021/12/25 00:35:11;;;;;;;2.47;2.10;;;;;;;;;;6180133;28;20242;-67
2021/12/25 00:38:32;;;;;;;7.37;2.43;;;;;;;;;;6180625;28;20238;-67
2021/12/25 00:41:53;;;;;;;3.30;2.63;;;;;;;;;;6187624;28;20222;-68
2021/12/25 00:45:15;;;;;;;3.27;2.37;;;;;;;;;;6185165;28;20250;-68
2021/12/25 00:48:37;;;;;;;3.57;2.83;;;;;;;;;;6191906;28;20236;-67
2021/12/25 00:51:58;;;;;;;3.30;2.60;;;;;;;;;;6173615;28;20639;-67
2021/12/25 00:55:19;;;;;;;5.73;3.90;;;;;;;;;;6173347;28;20537;-67
2021/12/25 00:58:40;;;;;;;4.37;2.67;;;;;;;;;;6180785;28;20234;-67
2021/12/25 01:02:03;;;;;;;3.23;2.87;;;;;;;;;;6180938;28;20233;-66
2021/12/25 01:05:25;;;;;;;4.57;2.50;;;;;;;;;;6172455;28;20321;-66
2021/12/25 01:08:47;;;;;;;4.57;2.70;;;;;;;;;;6190074;28;20446;-66
2021/12/25 01:12:11;;;;;;;4.27;3.30;;;;;;;;;;6178537;28;20238;-67
2021/12/25 01:15:40;;;;;;;4.60;3.03;;;;;;;;;;6191983;28;20528;-67
2021/12/25 01:26:57;;;;;;;4.97;2.77;;;;;;;;;;6159320;28;20213;-67
2021/12/25 01:30:22;;;;;;;3.90;2.97;;;;;;;;;;6172449;28;20238;-66
2021/12/25 01:38:02;;;;;;;4.03;2.63;;;;;;;;;;6178630;28;20236;-67
2021/12/25 01:49:30;;;;;;;4.37;2.97;;;;;;;;;;6186363;28;20225;-67
2021/12/25 01:52:53;;;;;;;3.63;2.77;;;;;;;;;;6190297;28;20237;-66
2021/12/25 01:56:15;;;;;;;3.17;2.90;;;;;;;;;;6176122;28;20229;-67
2021/12/25 01:59:36;;;;;;;6.10;2.70;;;;;;;;;;6184849;28;20241;-66
2021/12/25 02:02:57;;;;;;;4.73;2.20;;;;;;;;;;6191792;28;20229;-67
2021/12/25 02:06:18;;;;;;;4.23;2.27;;;;;;;;;;6175203;28;20230;-66
2021/12/25 02:09:40;;;;;;;3.47;2.20;;;;;;;;;;6190321;28;20328;-66
2021/12/25 02:13:03;;;;;;;4.07;3.60;;;;;;;;;;6190972;28;20316;-67
2021/12/25 02:16:27;;;;;;;4.00;2.87;;;;;;;;;;6186204;28;20226;-68
2021/12/25 02:20:13;;;;;;;4.47;3.67;;;;;;;;;;6172791;28;20234;-65
2021/12/25 02:23:35;;;;;;;6.70;3.27;;;;;;;;;;6180174;28;20329;-67
2021/12/25 02:26:56;;;;;;;5.10;3.00;;;;;;;;;;6185157;28;20272;-66
2021/12/25 02:30:19;;;;;;;4.20;3.10;;;;;;;;;;6189500;28;20520;-66
2021/12/25 02:33:41;;;;;;;3.07;1.83;;;;;;;;;;6185945;28;20245;-66
2021/12/25 02:37:04;;;;;;;5.23;3.10;;;;;;;;;;6183640;28;20313;-66
2021/12/25 02:40:29;;;;;;;3.20;2.60;;;;;;;;;;6189485;28;20437;-66
2021/12/25 02:43:50;;;;;;;3.97;2.70;;;;;;;;;;6178216;28;20242;-67
2021/12/25 02:47:21;;;;;;;4.90;4.17;;;;;;;;;;6178550;28;20244;-65
2021/12/25 02:50:43;;;;;;;3.13;2.20;;;;;;;;;;6173410;28;20242;-66
2021/12/25 02:54:06;;;;;;;4.20;2.43;;;;;;;;;;6186383;28;20230;-66
2021/12/25 02:57:28;;;;;;;4.90;2.03;;;;;;;;;;6192862;28;20271;-66
2021/12/25 03:00:52;;;;;;;3.23;2.60;;;;;;;;;;6177764;28;20898;-65
2021/12/25 03:04:13;;;;;;;4.07;2.30;;;;;;;;;;6189440;28;20522;-67
2021/12/25 03:07:34;;;;;;;3.03;2.73;;;;;;;;;;6185017;28;20234;-67
2021/12/25 03:10:57;;;;;;;6.63;2.47;;;;;;;;;;6186809;28;20246;-67
2021/12/25 03:14:32;;;;;;;3.90;2.67;;;;;;;;;;6191735;28;21908;-67
2021/12/25 03:17:54;;;;;;;3.53;2.40;;;;;;;;;;6179437;28;20620;-66
2021/12/25 03:21:16;;;;;;;3.27;2.90;;;;;;;;;;6174671;28;20238;-67
2021/12/25 03:24:39;;;;;;;2.93;2.60;;;;;;;;;;6178232;28;20237;-67
2021/12/25 03:28:01;;;;;;;4.57;3.10;;;;;;;;;;6186588;28;20229;-67
2021/12/25 03:31:22;;;;;;;2.90;2.20;;;;;;;;;;6180439;28;20226;-66
2021/12/25 03:34:44;;;;;;;3.97;3.00;;;;;;;;;;6178667;28;20234;-66
2021/12/25 03:38:06;;;;;;;3.70;3.10;;;;;;;;;;6182923;28;20266;-66
2021/12/25 03:41:28;;;;;;;2.87;2.63;;;;;;;;;;6184301;28;20234;-65
2021/12/25 03:44:50;;;;;;;3.87;3.20;;;;;;;;;;6191245;28;20260;-66
2021/12/25 03:48:15;;;;;;;4.83;3.23;;;;;;;;;;6183166;28;20230;-67
2021/12/25 03:58:53;;;;;;;2.90;2.60;;;;;;;;;;6181203;28;20568;-66
2021/12/25 04:02:20;;;;;;;3.77;2.37;;;;;;;;;;6185738;28;20226;-66
2021/12/25 04:05:44;;;;;;;4.80;2.80;;;;;;;;;;6185368;28;20321;-66
2021/12/25 04:09:10;;;;;;;4.50;3.13;;;;;;;;;;6195101;28;20552;-68
2021/12/25 04:12:32;;;;;;;5.17;3.73;;;;;;;;;;6172925;28;20226;-65
2021/12/25 04:15:53;;;;;;;4.40;3.17;;;;;;;;;;6190967;28;20233;-66
2021/12/25 04:19:16;;;;;;;3.37;3.03;;;;;;;;;;6181454;28;20620;-67
2021/12/25 04:22:43;;;;;;;6.00;4.17;;;;;;;;;;6181444;28;20226;-66
2021/12/25 04:26:04;;;;;;;6.23;2.90;;;;;;;;;;6192458;28;20266;-67
2021/12/25 04:29:39;;;;;;;4.83;2.87;;;;;;;;;;6178008;28;20229;-67
2021/12/25 04:42:34;;;;;;;3.90;3.10;;;;;;;;;;6185118;28;20237;-66
2021/12/25 04:48:31;;;;;;;5.23;2.53;;;;;;;;;;6179780;28;20230;-66
2021/12/25 05:03:02;;;;;;;4.53;2.40;;;;;;;;;;6192466;28;20328;-67
2021/12/25 05:06:54;;;;;;;6.43;5.23;;;;;;;;;;6165272;28;20237;-67
2021/12/25 05:10:16;;;;;;;4.27;3.50;;;;;;;;;;6193206;28;20229;-66
2021/12/25 05:13:38;;;;;;;3.50;2.53;;;;;;;;;;6190371;28;20321;-66
2021/12/25 05:17:00;;;;;;;3.33;2.90;;;;;;;;;;6181829;28;20230;-66
2021/12/25 05:20:22;;;;;;;2.83;2.60;;;;;;;;;;6186206;28;20241;-67
2021/12/25 05:23:43;;;;;;;2.73;2.53;;;;;;;;;;6174092;28;20235;-67
2021/12/25 05:27:05;;;;;;;2.80;2.60;;;;;;;;;;6187486;28;20234;-65
2021/12/25 05:30:29;;;;;;;5.13;2.80;;;;;;;;;;6191739;28;20230;-66
2021/12/25 05:34:09;;;;;;;3.23;2.30;;;;;;;;;;6176448;28;20234;-67
2021/12/25 05:38:00;;;;;;;3.10;2.57;;;;;;;;;;6180598;28;20615;-66
2021/12/25 05:41:39;;;;;;;3.20;2.43;;;;;;;;;;6190307;28;20225;-65
2021/12/25 05:45:07;;;;;;;5.93;2.63;;;;;;;;;;6185907;28;20237;-66
2021/12/25 05:48:39;;;;;;;2.63;2.43;;;;;;;;;;6179523;28;20238;-66
2021/12/25 05:52:00;;;;;;;2.73;2.50;;;;;;;;;;6185950;28;20246;-66
2021/12/25 05:55:27;;;;;;;3.90;2.97;;;;;;;;;;6174640;28;20233;-66
2021/12/25 05:59:07;;;;;;;3.63;2.70;;;;;;;;;;6191208;28;20237;-65
2021/12/25 06:02:49;;;;;;;3.27;2.90;;;;;;;;;;6191871;28;20233;-66
2021/12/25 06:06:17;;;;;;;3.40;2.50;;;;;;;;;;6180627;28;20321;-66
2021/12/25 06:09:38;;;;;;;2.57;2.37;;;;;;;;;;6179081;28;20238;-66
2021/12/25 06:13:00;;;;;;;3.53;2.93;;;;;;;;;;6192723;28;20234;-66
2021/12/25 06:16:24;;;;;;;5.23;2.83;;;;;;;;;;6178817;28;21355;-66
2021/12/25 06:20:05;;;;;;;6.33;3.03;;;;;;;;;;6174685;28;20238;-66
2021/12/25 06:23:53;;;;;;;2.93;2.30;;;;;;;;;;6194187;28;20226;-65
2021/12/25 06:27:34;;;;;;;3.37;2.73;;;;;;;;;;6183752;28;20609;-66
2021/12/25 06:31:21;;;;;;;2.60;2.37;;;;;;;;;;6189216;28;20546;-65
2021/12/25 06:34:51;;;;;;;4.43;2.73;;;;;;;;;;6185509;28;20302;-66
2021/12/25 06:38:42;;;;;;;4.60;2.50;;;;;;;;;;6182770;28;20237;-65
2021/12/25 06:42:17;;;;;;;4.67;2.80;;;;;;;;;;6196875;28;20225;-64
2021/12/25 06:45:38;;;;;;;3.87;2.67;;;;;;;;;;6182650;28;20230;-66
2021/12/25 06:48:59;;;;;;;3.10;2.37;;;;;;;;;;6192439;28;20805;-66
2021/12/25 06:52:46;;;;;;;3.80;2.90;;;;;;;;;;6189971;28;20629;-66
2021/12/25 06:56:21;;;;;;;3.80;2.17;;;;;;;;;;6189374;28;20238;-66
2021/12/25 06:59:53;;;;;;;2.70;1.87;;;;;;;;;;6192146;28;20234;-66
2021/12/25 07:03:14;;;;;;;4.30;2.10;;;;;;;;;;6195662;28;20249;-66
2021/12/25 07:06:55;;;;;;;3.47;2.07;;;;;;;;;;6189624;28;20238;-66
2021/12/25 07:10:19;;;;;;;2.77;2.10;;;;;;;;;;6190211;28;20229;-66
2021/12/25 07:13:50;;;;;;;3.47;2.10;;;;;;;;;;6187821;28;20230;-67
2021/12/25 07:17:11;;;;;;;3.43;2.03;;;;;;;;;;6186258;28;20226;-65
2021/12/25 07:20:51;;;;;;;4.93;2.23;;;;;;;;;;6187495;28;20237;-66
2021/12/25 07:24:31;;;;;;;3.00;2.37;;;;;;;;;;6174144;28;20320;-66
2021/12/25 07:28:14;;;;;;;1.97;1.87;;;;;;;;;;6185592;28;20600;-67
2021/12/25 07:31:35;;;;;;;4.40;2.57;;;;;;;;;;6189936;28;20744;-65
2021/12/25 07:34:57;;;;;;;3.30;2.20;;;;;;;;;;6186447;28;20226;-67
2021/12/25 07:38:18;;;;;;;5.70;2.10;;;;;;;;;;6181619;28;20276;-65
2021/12/25 07:41:39;;;;;;;2.00;1.87;;;;;;;;;;6176200;28;20234;-66
2021/12/25 07:45:05;;;;;;;2.53;2.17;;;;;;;;;;6187634;28;20230;-66
2021/12/25 07:48:27;;;;;;;1.80;1.70;;;;;;;;;;6183559;28;20238;-66
2021/12/25 07:51:49;;;;;;;4.90;2.90;;;;;;;;;;6174443;28;20222;-67
2021/12/25 07:55:11;;;;;;;5.33;1.93;;;;;;;;;;6189311;28;20234;-67
2021/12/25 07:58:31;;;;;;;2.13;1.90;;;;;;;;;;6181381;28;20238;-66
2021/12/25 08:01:53;;;;;;;4.50;1.87;;;;;;;;;;6189609;28;20225;-66
2021/12/25 08:05:14;;;;;;;2.80;2.20;;;;;;;;;;6185233;28;20249;-66
2021/12/25 08:08:37;;;;;;;2.70;2.50;;;;;;;;;;6171397;28;20794;-67
2021/12/25 08:11:59;;;;;;;1.80;1.67;;;;;;;;;;6179371;28;20230;-68
2021/12/25 08:15:21;;;;;;;2.87;1.93;;;;;;;;;;6183375;28;20233;-67
2021/12/25 08:18:43;;;;;;;2.27;1.80;;;;;;;;;;6186458;28;20222;-67
2021/12/25 08:22:22;;;;;;;4.73;2.83;;;;;;;;;;6181934;28;20223;-66
2021/12/25 08:26:05;;;;;;;1.67;1.57;;;;;;;;;;6170033;28;20222;-66
2021/12/25 08:29:31;;;;;;;5.17;2.90;;;;;;;;;;6179526;28;20221;-66
2021/12/25 08:33:18;;;;;;;2.97;2.53;;;;;;;;;;6169591;28;20226;-66
2021/12/25 08:37:02;;;;;;;2.70;2.30;;;;;;;;;;6170861;28;20317;-66
2021/12/25 08:40:25;;;;;;;2.83;2.33;;;;;;;;;;6191619;28;20250;-66
2021/12/25 08:43:49;;;;;;;2.53;2.27;;;;;;;;;;6186811;28;20230;-66
2021/12/25 08:47:12;;;;;;;3.40;2.10;;;;;;;;;;6183538;28;20238;-67
2021/12/25 08:50:33;;;;;;;2.00;1.73;;;;;;;;;;6188446;28;20663;-66
2021/12/25 08:53:54;;;;;;;3.33;2.13;;;;;;;;;;6176424;28;20544;-67
2021/12/25 08:57:17;;;;;;;2.00;1.80;;;;;;;;;;6184573;28;20230;-65
2021/12/25 09:00:39;;;;;;;2.13;1.50;;;;;;;;;;6175987;28;20230;-67
2021/12/25 09:04:00;;;;;;;3.90;2.17;;;;;;;;;;6186354;28;20230;-67
2021/12/25 09:07:21;;;;;;;2.83;2.43;;;;;;;;;;6188241;28;20238;-67
2021/12/25 09:10:42;;;;;;;2.63;2.03;;;;;;;;;;6184381;28;20234;-67
2021/12/25 09:14:03;;;;;;;1.87;1.73;;;;;;;;;;6187201;28;20226;-67
2021/12/25 09:17:26;;;;;;;1.97;1.77;;;;;;;;;;6180572;28;20234;-67
2021/12/25 09:20:46;;;;;;;3.43;1.90;;;;;;;;;;6175421;28;20237;-67
2021/12/25 09:24:08;;;;;;;2.50;2.07;;;;;;;;;;6181648;28;20253;-66
2021/12/25 09:27:28;;;;;;;2.50;2.00;;;;;;;;;;6187372;28;20230;-66
2021/12/25 09:30:49;;;;;;;3.72;2.35;;;;;;;;;;6188275;28;20229;-66
2021/12/25 09:34:12;;;;;;;3.95;1.98;;;;;;;;;;6181521;28;20309;-67
2021/12/25 09:37:33;;;;;;;2.30;2.10;;;;;;;;;;6185986;28;20261;-66
2021/12/25 09:40:55;;;;;;;2.40;2.20;;;;;;;;;;6176905;28;20238;-67
2021/12/25 09:44:16;;;;;;;3.90;2.47;;;;;;;;;;6187894;28;20316;-67
2021/12/25 09:47:37;;;;;;;2.55;2.25;;;;;;;;;;6186832;28;20313;-67
2021/12/25 09:50:59;;;;;;;4.72;2.28;;;;;;;;;;6169281;28;20846;-67
2021/12/25 09:54:21;;;;;;;4.53;1.88;;;;;;;;;;6193817;28;20225;-66
2021/12/25 09:57:42;;;;;;;2.85;2.50;;;;;;;;;;6193173;28;20230;-67
2021/12/25 10:01:03;;;;;;;3.45;2.70;;;;;;;;;;6177218;28;20229;-67
2021/12/25 10:04:37;;;;;;;4.63;2.45;;;;;;;;;;6194278;28;20232;-67
2021/12/25 10:08:04;;;;;;;2.88;2.42;;;;;;;;;;6198760;28;20229;-66
2021/12/25 10:11:26;;;;;;;4.90;3.50;;;;;;;;;;6200383;28;20658;-65
2021/12/25 10:14:53;;;;;;;2.67;2.47;;;;;;;;;;6189128;28;20799;-66
2021/12/25 10:18:14;;;;;;;3.75;2.92;;;;;;;;;;6190867;28;20233;-67
2021/12/25 10:21:35;;;;;;;4.53;3.22;;;;;;;;;;6200029;28;20700;-66
2021/12/25 10:25:10;;;;;;;4.43;3.28;;;;;;;;;;6191315;28;20230;-67
2021/12/25 10:28:34;;;;;;;5.10;3.55;;;;;;;;;;6188490;28;20234;-66
2021/12/25 10:31:58;;;;;;;3.88;3.42;;;;;;;;;;6188851;28;20226;-67
2021/12/25 10:35:21;;;;;;;3.63;3.00;;;;;;;;;;6186910;28;20718;-67
2021/12/25 10:38:57;;;;;;;4.25;2.65;;;;;;;;;;6193625;28;20222;-66
2021/12/25 10:42:22;;;;;;;5.18;2.65;;;;;;;;;;6197939;28;20321;-66
2021/12/25 10:45:42;;;;;;;5.13;2.35;;;;;;;;;;6187444;28;20801;-67
2021/12/25 10:49:12;;;;;;;3.78;2.53;;;;;;;;;;6188272;28;20254;-67
2021/12/25 10:52:40;;;;;;;2.65;2.45;;;;;;;;;;6187404;28;20242;-65
2021/12/25 10:56:09;;;;;;;4.05;3.47;;;;;;;;;;6188135;28;20253;-66
2021/12/25 10:59:42;;;;;;;4.28;3.88;;;;;;;;;;6183674;28;20234;-67
2021/12/25 11:03:05;;;;;;;4.82;3.10;;;;;;;;;;6189585;28;20234;-67
2021/12/25 11:06:26;;;;;;;5.55;4.05;;;;;;;;;;6191283;28;20242;-67
2021/12/25 11:10:05;;;;;;;5.30;3.30;;;;;;;;;;6190601;28;20240;-67
2021/12/25 11:13:28;;;;;;;4.30;3.38;;;;;;;;;;6181376;28;20292;-68
2021/12/25 11:16:53;;;;;;;3.50;2.40;;;;;;;;;;6185869;28;20230;-66
2021/12/25 11:20:18;;;;;;;2.90;2.42;;;;;;;;;;6189231;28;20616;-66
2021/12/25 11:23:40;;;;;;;3.60;2.47;;;;;;;;;;6171920;28;20238;-66
2021/12/25 11:27:04;;;;;;;2.95;1.88;;;;;;;;;;6185731;28;20222;-67
2021/12/25 11:30:27;;;;;;;3.38;2.42;;;;;;;;;;6189218;28;20585;-66
2021/12/25 11:33:50;;;;;;;3.88;2.50;;;;;;;;;;6192975;28;20253;-67
2021/12/25 11:37:13;;;;;;;5.03;2.17;;;;;;;;;;6178297;28;20238;-68
2021/12/25 11:40:37;;;;;;;3.10;2.25;;;;;;;;;;6191859;28;20320;-67
2021/12/25 11:43:59;;;;;;;6.80;2.42;;;;;;;;;;6190022;28;20233;-65
2021/12/25 11:47:32;;;;;;;4.25;3.08;;;;;;;;;;6192193;28;20233;-67
2021/12/25 11:50:54;;;;;;;4.15;2.85;;;;;;;;;;6190796;28;20226;-67
2021/12/25 11:54:55;;;;;;;3.97;2.13;;;;;;;;;;6185065;28;20230;-66
2021/12/25 11:58:39;;;;;;;4.15;2.30;;;;;;;;;;6189553;28;20796;-66
2021/12/25 12:02:03;;;;;;;3.50;2.00;;;;;;;;;;6190352;28;20246;-67
2021/12/25 12:05:27;;;;;;;3.25;2.90;;;;;;;;;;6178752;28;20226;-67
2021/12/25 12:09:08;;;;;;;3.75;3.22;;;;;;;;;;6174511;28;20234;-66
2021/12/25 12:12:38;;;;;;;5.55;3.58;;;;;;;;;;6184420;28;20237;-67
2021/12/25 12:16:36;;;;;;;5.82;5.03;;;;;;;;;;6186300;28;20222;-66
2021/12/25 12:20:05;;;;;;;5.50;3.88;;;;;;;;;;6177882;28;20312;-66
2021/12/25 12:23:37;;;;;;;11.77;9.10;;;;;;;;;;6176019;28;20328;-67
2021/12/25 12:26:59;;;;;;;5.03;3.63;;;;;;;;;;6188120;28;20584;-65
2021/12/25 12:30:52;;;;;;;5.90;4.13;;;;;;;;;;6189317;28;20241;-67
2021/12/25 12:34:39;;;;;;;5.30;3.80;;;;;;;;;;6181432;28;20320;-67
2021/12/25 12:38:31;;;;;;;7.37;4.73;;;;;;;;;;6180244;28;20237;-66
2021/12/25 12:41:56;;;;;;;5.13;3.57;;;;;;;;;;6191660;28;20285;-67
2021/12/25 12:45:20;;;;;;;3.13;2.83;;;;;;;;;;6183174;28;20726;-66
2021/12/25 12:49:01;;;;;;;7.13;3.97;;;;;;;;;;6186680;28;20230;-66
2021/12/25 12:52:24;;;;;;;11.50;8.17;;;;;;;;;;6186887;28;20233;-65
2021/12/25 12:55:48;;;;;;;4.73;4.00;;;;;;;;;;6174074;28;20221;-67
2021/12/25 12:59:08;;;;;;;5.50;2.80;;;;;;;;;;6186709;28;20230;-65
2021/12/25 13:02:32;;;;;;;5.53;2.60;;;;;;;;;;6180767;28;20234;-66
2021/12/25 13:05:55;;;;;;;3.67;2.17;;;;;;;;;;6179594;28;20221;-67
2021/12/25 13:09:17;;;;;;;3.87;2.17;;;;;;;;;;6170018;28;20238;-66
2021/12/25 13:12:43;;;;;;;4.90;2.57;;;;;;;;;;6171338;28;20231;-66
2021/12/25 13:16:06;;;;;;;5.60;3.03;;;;;;;;;;6178473;28;20234;-66
2021/12/25 13:19:29;;;;;;;4.60;3.50;;;;;;;;;;6180455;28;20237;-65
2021/12/25 13:22:57;;;;;;;4.70;2.73;;;;;;;;;;6181514;28;20233;-66
2021/12/25 13:26:20;;;;;;;5.27;2.87;;;;;;;;;;6190335;28;20229;-65
2021/12/25 13:29:41;;;;;;;4.93;2.80;;;;;;;;;;6170896;28;20254;-66
2021/12/25 13:33:11;;;;;;;4.50;1.80;;;;;;;;;;6188763;28;20623;-66
2021/12/25 13:36:34;;;;;;;4.53;2.10;;;;;;;;;;6178969;28;20238;-65
2021/12/25 13:39:55;;;;;;;7.03;2.63;;;;;;;;;;6187566;28;20237;-66
2021/12/25 13:43:16;;;;;;;8.67;4.30;;;;;;;;;;6191188;28;20253;-65
2021/12/25 13:46:40;;;;;;;12.53;5.13;;;;;;;;;;6180575;28;20245;-66
2021/12/25 13:50:04;;;;;;;3.93;2.97;;;;;;;;;;6185576;28;20242;-67
2021/12/25 13:53:28;;;;;;;3.63;2.80;;;;;;;;;;6192566;28;20234;-66
2021/12/25 13:56:52;;;;;;;4.87;3.47;;;;;;;;;;6186602;28;20317;-66
2021/12/25 14:00:15;;;;;;;4.63;2.73;;;;;;;;;;6186190;28;20234;-66
2021/12/25 14:03:36;;;;;;;3.40;2.30;;;;;;;;;;6173692;28;20599;-65
2021/12/25 14:06:58;;;;;;;3.60;2.73;;;;;;;;;;6176343;28;20612;-66
2021/12/25 14:10:22;;;;;;;4.13;2.13;;;;;;;;;;6190409;28;20229;-67
2021/12/25 14:13:43;;;;;;;5.87;1.93;;;;;;;;;;6189184;28;20250;-66
2021/12/25 14:17:04;;;;;;;21.80;18.67;;;;;;;;;;6188497;28;20226;-66
2021/12/25 14:20:27;;;;;;;34.77;30.67;;;;;;;;;;6177356;28;21040;-66
2021/12/25 14:24:01;;;;;;;4.20;3.77;;;;;;;;;;6183504;28;20230;-66
2021/12/25 14:27:23;;;;;;;3.30;3.00;;;;;;;;;;6185216;28;20226;-67
2021/12/25 14:30:46;;;;;;;5.10;2.73;;;;;;;;;;6187671;28;20218;-66
2021/12/25 14:34:07;;;;;;;3.03;2.77;;;;;;;;;;6179298;28;20234;-66
2021/12/25 14:37:31;;;;;;;5.10;2.73;;;;;;;;;;6171259;28;20231;-66
2021/12/25 14:40:52;;;;;;;4.97;2.93;;;;;;;;;;6171656;28;20333;-66
2021/12/25 14:44:17;;;;;;;4.47;3.53;;;;;;;;;;6188313;28;20234;-66
2021/12/25 14:47:54;;;;;;;6.77;3.40;;;;;;;;;;6175921;28;20333;-66
2021/12/25 14:51:17;;;;;;;4.63;3.60;;;;;;;;;;6186322;28;20234;-67
2021/12/25 14:54:39;;;;;;;6.10;2.77;;;;;;;;;;6172601;28;20234;-66
2021/12/25 14:58:10;;;;;;;3.63;2.77;;;;;;;;;;6188183;28;20226;-66
2021/12/25 15:01:36;;;;;;;5.50;3.90;;;;;;;;;;6181571;28;20233;-66
2021/12/25 15:04:58;;;;;;;9.97;3.53;;;;;;;;;;6186598;28;20261;-66
2021/12/25 15:08:21;;;;;;;3.10;2.80;;;;;;;;;;6194226;28;20234;-66
2021/12/25 15:11:44;;;;;;;6.33;3.33;;;;;;;;;;6194047;28;20237;-66
2021/12/25 15:15:07;;;;;;;4.00;3.10;;;;;;;;;;6183097;28;20242;-65
2021/12/25 15:18:30;;;;;;;7.80;2.70;;;;;;;;;;6191547;28;20503;-66
2021/12/25 15:21:52;;;;;;;8.07;4.33;;;;;;;;;;6181276;28;20238;-67
2021/12/25 15:25:18;;;;;;;3.37;3.03;;;;;;;;;;6184145;28;20537;-66
2021/12/25 15:28:40;;;;;;;4.47;3.20;;;;;;;;;;6182877;28;20325;-65
2021/12/25 15:32:04;;;;;;;4.60;3.80;;;;;;;;;;6180478;28;20246;-65
2021/12/25 15:35:31;;;;;;;5.93;4.03;;;;;;;;;;6186209;28;20230;-66
2021/12/25 15:38:52;;;;;;;3.93;3.10;;;;;;;;;;6175844;28;20222;-65
2021/12/25 15:42:13;;;;;;;3.90;3.03;;;;;;;;;;6186944;28;20234;-66
2021/12/25 15:45:34;;;;;;;5.13;4.03;;;;;;;;;;6193549;28;20233;-68
2021/12/25 15:48:54;;;;;;;5.63;3.83;;;;;;;;;;6184650;28;20230;-67
2021/12/25 15:52:19;;;;;;;5.03;3.87;;;;;;;;;;6190058;28;20602;-66
2021/12/25 15:55:40;;;;;;;6.53;4.23;;;;;;;;;;6178564;28;20254;-66
2021/12/25 15:59:01;;;;;;;7.03;3.70;;;;;;;;;;6184172;28;20882;-65
2021/12/25 16:02:27;;;;;;;7.50;4.87;;;;;;;;;;6185803;28;20254;-66
2021/12/25 16:05:49;;;;;;;6.63;4.77;;;;;;;;;;6191405;28;20332;-66
2021/12/25 16:09:11;;;;;;;5.50;4.33;;;;;;;;;;6184922;28;20577;-66
2021/12/25 16:12:32;;;;;;;6.73;4.37;;;;;;;;;;6183474;28;20221;-67
2021/12/25 16:15:56;;;;;;;7.50;3.93;;;;;;;;;;6177603;28;20233;-65
2021/12/25 16:19:17;;;;;;;7.63;4.93;;;;;;;;;;6182293;28;20230;-65
2021/12/25 16:22:37;;;;;;;8.50;4.90;;;;;;;;;;6182225;28;20238;-64
2021/12/25 16:26:00;;;;;;;5.10;4.57;;;;;;;;;;6191853;28;20620;-65
2021/12/25 16:29:21;;;;;;;10.13;4.50;;;;;;;;;;6186620;28;20237;-66
2021/12/25 16:32:42;;;;;;;8.07;4.50;;;;;;;;;;6192426;28;20897;-66
2021/12/25 16:36:09;;;;;;;7.87;5.03;;;;;;;;;;6185122;28;20234;-66
2021/12/25 16:39:30;;;;;;;7.40;5.07;;;;;;;;;;6193256;28;20238;-67
2021/12/25 16:42:52;;;;;;;6.53;4.77;;;;;;;;;;6181678;28;20242;-66
2021/12/25 16:46:13;;;;;;;8.67;5.93;;;;;;;;;;6187100;28;20621;-66
2021/12/25 16:49:34;;;;;;;6.03;4.87;;;;;;;;;;6174027;28;20608;-67
2021/12/25 16:52:55;;;;;;;9.63;5.60;;;;;;;;;;6182702;28;20237;-66
2021/12/25 16:56:16;;;;;;;6.63;4.77;;;;;;;;;;6183662;28;20230;-65
2021/12/25 16:59:38;;;;;;;9.87;7.20;;;;;;;;;;6186817;28;20238;-65
2021/12/25 17:03:03;;;;;;;6.70;6.00;;;;;;;;;;6189125;28;20242;-67
2021/12/25 17:06:25;;;;;;;8.63;5.73;;;;;;;;;;6192235;28;20237;-65
2021/12/25 17:09:47;;;;;;;10.53;5.53;;;;;;;;;;6187379;28;20588;-67
2021/12/25 17:13:08;;;;;;;9.30;5.67;;;;;;;;;;6193378;28;20238;-66
2021/12/25 17:16:31;;;;;;;8.87;6.40;;;;;;;;;;6181087;28;20247;-66
2021/12/25 17:19:52;;;;;;;6.93;6.13;;;;;;;;;;6181642;28;20229;-66
2021/12/25 17:23:12;;;;;;;10.23;6.23;;;;;;;;;;6175205;28;20777;-66
2021/12/25 17:26:33;;;;;;;8.13;6.00;;;;;;;;;;6452136;23;20500;-66
2021/12/25 17:29:54;;;;;;;10.33;6.83;;;;;;;;;;6216089;28;20236;-66
2021/12/25 17:33:18;;;;;;;12.53;7.53;;;;;;;;;;6228207;28;20522;-66
2021/12/25 17:36:40;;;;;;;10.07;7.70;;;;;;;;;;6234373;28;20228;-66
2021/12/25 17:40:01;;;;;;;12.63;6.67;;;;;;;;;;6233084;28;20228;-66
2021/12/25 17:43:22;;;;;;;7.33;6.40;;;;;;;;;;6223273;28;20312;-66
2021/12/25 17:46:44;;;;;;;7.87;6.33;;;;;;;;;;6223494;28;20241;-66
2021/12/25 17:50:11;;;;;;;7.40;6.47;;;;;;;;;;6221781;28;20537;-66
2021/12/25 17:53:32;;;;;;;11.43;6.90;;;;;;;;;;6229160;28;20237;-67
2021/12/25 17:56:54;;;;;;;10.37;7.93;;;;;;;;;;6228782;28;20614;-66
2021/12/25 18:00:18;;;;;;;11.70;7.70;;;;;;;;;;6221172;28;20756;-65
2021/12/25 18:03:42;;;;;;;9.40;7.47;;;;;;;;;;6228586;28;20244;-67
2021/12/25 18:07:05;;;;;;;9.47;7.07;;;;;;;;;;6233149;28;20232;-65
2021/12/25 18:10:26;;;;;;;11.43;7.97;;;;;;;;;;6226750;28;20244;-65
2021/12/25 18:13:47;;;;;;;7.77;6.97;;;;;;;;;;6227085;28;20232;-66
2021/12/25 18:17:08;;;;;;;9.93;6.57;;;;;;;;;;6234026;28;20326;-66
2021/12/25 18:20:31;;;;;;;9.63;8.63;;;;;;;;;;6224073;28;20225;-66
2021/12/25 18:23:54;;;;;;;13.37;8.50;;;;;;;;;;6232972;28;20244;-66
2021/12/25 18:27:16;;;;;;;11.90;8.13;;;;;;;;;;6229899;28;20602;-66
2021/12/25 18:30:41;;;;;;;11.83;8.03;;;;;;;;;;6217642;28;20244;-66
2021/12/25 18:34:02;;;;;;;9.63;7.40;;;;;;;;;;6213748;28;20233;-65
2021/12/25 18:37:22;;;;;;;10.10;8.37;;;;;;;;;;6217175;28;20268;-67
2021/12/25 18:40:46;;;;;;;8.77;7.87;;;;;;;;;;6218315;28;20695;-67
2021/12/25 18:44:07;;;;;;;8.67;7.63;;;;;;;;;;6219839;28;20233;-66
2021/12/25 18:47:28;;;;;;;9.23;8.23;;;;;;;;;;6220604;28;20229;-67
2021/12/25 18:50:49;;;;;;;10.23;7.63;;;;;;;;;;6219079;28;20237;-66
2021/12/25 18:54:10;;;;;;;10.70;7.70;;;;;;;;;;6213096;28;20224;-65
2021/12/25 18:57:32;;;;;;;11.93;9.10;;;;;;;;;;6219428;28;20361;-66
2021/12/25 19:00:54;;;;;;;12.83;8.67;;;;;;;;;;6216886;28;20233;-67
2021/12/25 19:04:15;;;;;;;12.53;8.10;;;;;;;;;;6218040;28;20508;-67
2021/12/25 19:07:35;;;;;;;9.10;7.23;;;;;;;;;;6219462;28;20229;-66
2021/12/25 19:10:56;;;;;;;10.90;8.17;;;;;;;;;;6217499;28;20236;-67
2021/12/25 19:14:19;;;;;;;11.93;8.00;;;;;;;;;;6214386;28;20623;-67
2021/12/25 19:17:40;;;;;;;10.77;8.63;;;;;;;;;;6218323;28;20233;-66
2021/12/25 19:21:02;;;;;;;10.10;7.77;;;;;;;;;;6218707;28;20598;-65
2021/12/25 19:24:23;;;;;;;9.47;8.40;;;;;;;;;;6217753;28;20241;-67
2021/12/25 19:27:45;;;;;;;10.57;7.97;;;;;;;;;;6218252;28;20593;-66
2021/12/25 19:31:07;;;;;;;11.67;8.93;;;;;;;;;;6204727;28;20604;-66
2021/12/25 19:34:30;;;;;;;10.33;7.93;;;;;;;;;;6217216;28;20229;-67
2021/12/25 19:37:51;;;;;;;13.73;9.67;;;;;;;;;;6218755;28;20478;-67
2021/12/25 19:41:12;;;;;;;9.67;8.47;;;;;;;;;;6218779;28;20229;-65
2021/12/25 19:44:33;;;;;;;12.20;8.73;;;;;;;;;;6214678;28;20249;-67
2021/12/25 19:47:56;;;;;;;10.73;8.10;;;;;;;;;;6219587;28;20233;-66
2021/12/25 19:51:17;;;;;;;8.60;7.07;;;;;;;;;;6218426;28;20225;-67
2021/12/25 19:54:38;;;;;;;9.90;8.67;;;;;;;;;;6216980;28;20229;-67
2021/12/25 19:57:59;;;;;;;10.03;9.00;;;;;;;;;;6218850;28;20225;-67
2021/12/25 20:01:22;;;;;;;10.57;8.43;;;;;;;;;;6214752;28;20217;-67
2021/12/25 20:04:45;;;;;;;15.63;8.97;;;;;;;;;;6217732;28;20240;-66
2021/12/25 20:08:06;;;;;;;11.77;9.57;;;;;;;;;;6212144;28;20552;-66
2021/12/25 20:11:27;;;;;;;14.17;9.50;;;;;;;;;;6214365;28;20233;-66
2021/12/25 20:14:48;;;;;;;11.83;9.77;;;;;;;;;;6218038;28;20229;-66
2021/12/25 20:18:09;;;;;;;13.87;10.30;;;;;;;;;;6216922;28;20229;-66
2021/12/25 20:21:31;;;;;;;13.57;9.90;;;;;;;;;;6217954;28;20237;-67
2021/12/25 20:24:51;;;;;;;12.07;9.57;;;;;;;;;;6213311;28;20234;-66
2021/12/25 20:28:16;;;;;;;14.00;10.47;;;;;;;;;;6217311;28;20237;-67
2021/12/25 20:31:37;;;;;;;11.33;10.20;;;;;;;;;;6216720;28;20623;-67
2021/12/25 20:34:58;;;;;;;11.63;9.50;;;;;;;;;;6211960;28;20308;-67
2021/12/25 20:38:22;;;;;;;12.60;9.40;;;;;;;;;;6211154;28;20225;-66
2021/12/25 20:41:43;;;;;;;13.10;9.63;;;;;;;;;;6217358;28;20260;-66
2021/12/25 20:48:43;;;;;;;16.03;10.77;;;;;;;;;;6216126;28;20517;-67
2021/12/25 20:52:05;;;;;;;11.93;9.03;;;;;;;;;;6212918;28;20224;-67
2021/12/25 20:55:27;;;;;;;13.63;10.40;;;;;;;;;;6217551;28;20233;-65
2021/12/25 20:58:49;;;;;;;16.17;10.60;;;;;;;;;;6214739;28;20228;-67
2021/12/25 21:02:09;;;;;;;12.57;9.93;;;;;;;;;;6214380;28;20327;-66
2021/12/25 21:05:32;;;;;;;11.73;9.53;;;;;;;;;;6213714;28;20233;-66
2021/12/25 21:08:55;;;;;;;11.30;10.10;;;;;;;;;;6208500;28;20240;-66
2021/12/25 21:12:17;;;;;;;10.67;9.40;;;;;;;;;;6215857;28;20213;-66
2021/12/25 21:15:39;;;;;;;12.70;10.47;;;;;;;;;;6213740;28;20229;-67
2021/12/25 21:19:03;;;;;;;11.43;9.07;;;;;;;;;;6209483;28;20233;-66